Aérodrome :
LOGIN :

S'inscrire | Disclaimer

   EN    FR    IT 

 










Légende :    VFR   VFR Marginal   IFR   IFR Intensif   IFR Très Intensif
Visi : 
Plafond : 
>= 8 km
>= 3000ft
5 à 8 km
1000 à 3000 ft
1500m à 5 km
500 à 1000 ft
800 à 1500m
200 à 500 ft
< 800m
< 200 ft
Symboles :   Orages  Brouillard  Fortes neiges  Fortes précipitations  Vent > 20 kt
SIGMETs :   Divers  Orages  Givrage  Turbulence  Onde Orograph.  Cendres Volcan.






- Altitude de l'aérodrome : -13 ft
- Code IATA : LEY


EHLE - Lelystad

DERNIER METAR :
  • 091925Z AUTO 18006KT 4400 BR NCD M01/M02 Q1006 BECMG 1500 BKN003

METARs EXPIRÉS :
  • 090455Z AUTO 13003KT 0350 FZFG BKN000 M03/M03 Q1006
  • 091855Z AUTO 19004KT 2900 BR NCD M02/M02 Q1006 BECMG 1500 BKN003
  • 091825Z AUTO 19004KT 3000 BR NCD M01/M01 Q1006 BECMG 1500 BKN003
  • 091755Z AUTO 18004KT 2700 BR BKN008 M01/M02 Q1006 BECMG 1500 BKN003
  • 091725Z AUTO 17003KT 2900 BR NCD M01/M02 Q1006 BECMG 1500 BKN003
  • 091655Z AUTO 17003KT 2800 BR NCD M01/M02 Q1006 BECMG 1500 BKN003

TAF TAF EHLE
Valide du 09 à 12h jusqu'au 10 à 18h UTC


091116Z 0912/1018 19005KT 0200 FG VV001
BECMG 0913/0916 4000 BR BKN006
PROB30
TEMPO 0916/0924 0600 FG VV001
BECMG 1000/1003 2500 BKN003
PROB40 1000/1012 0400 FG VV001



MET'MAP, la Météo Aéronautique d'un coup d'oeil ! - Copyright ORBIFLY Décembre 2007 - Disclaimer

ORBIFLY MET'MAP TEAM :

Programmation & Développement : Alexandra Zaïnal
Sur une idée originale de : Baudouin d'Aumeries
Soutien technique & logistique : Manuel Goepfert
Assistance : Marc-Olivier Méhu




SOURCES & CREDITS :

   NOAA